createdAt,value
2019-05-14T00:02:12.581Z,29.60
2019-05-14T00:04:45.504Z,29.95
2019-05-14T00:07:17.071Z,27.65
2019-05-14T00:09:48.604Z,29.72
2019-05-14T00:12:22.245Z,27.30
2019-05-14T00:14:53.418Z,26.57
2019-05-14T00:17:24.952Z,26.27
2019-05-14T00:20:07.191Z,26.93
2019-05-14T00:22:46.703Z,26.85
2019-05-14T00:25:18.226Z,25.32
2019-05-14T00:27:51.729Z,25.55
2019-05-14T00:30:22.993Z,24.20
2019-05-14T00:32:54.461Z,24.12
2019-05-14T00:35:27.541Z,23.83
2019-05-14T00:38:05.393Z,23.75
2019-05-14T00:40:37.915Z,24.70
2019-05-14T00:43:13.230Z,24.98
2019-05-14T00:45:44.786Z,24.85
2019-05-14T00:48:16.333Z,25.00
2019-05-14T00:50:47.885Z,26.52
2019-05-14T00:53:21.357Z,28.45
2019-05-14T00:55:52.625Z,27.60
2019-05-14T00:58:24.142Z,27.82
2019-05-14T01:00:55.656Z,27.37
2019-05-14T01:03:27.226Z,25.57
2019-05-14T01:06:03.282Z,26.50
2019-05-14T01:08:41.363Z,26.82
2019-05-14T01:11:12.613Z,26.82
2019-05-14T01:13:45.327Z,24.95
2019-05-14T01:16:16.895Z,25.45
2019-05-14T01:18:51.182Z,26.85
2019-05-14T01:21:24.681Z,25.85
2019-05-14T01:23:56.244Z,25.15
2019-05-14T01:26:28.002Z,25.35
2019-05-14T01:29:01.496Z,26.77
2019-05-14T01:31:34.728Z,27.13
2019-05-14T01:34:07.774Z,26.15
2019-05-14T01:36:41.373Z,24.70
2019-05-14T01:39:13.110Z,25.55
2019-05-14T01:41:44.657Z,26.65
2019-05-14T01:44:16.205Z,25.68
2019-05-14T01:46:51.224Z,27.82
2019-05-14T01:49:23.031Z,27.22
2019-05-14T01:51:54.739Z,29.20
2019-05-14T01:54:27.300Z,27.98
2019-05-14T01:56:58.871Z,29.30
2019-05-14T01:59:32.147Z,30.00
2019-05-14T02:02:04.782Z,31.57
2019-05-14T02:04:36.211Z,31.33
2019-05-14T02:07:07.789Z,31.17
2019-05-14T02:09:41.771Z,27.73
2019-05-14T02:12:13.596Z,26.95
2019-05-14T02:14:45.142Z,26.45
2019-05-14T02:17:16.725Z,25.50
2019-05-14T02:19:48.315Z,25.17
2019-05-14T02:22:21.655Z,25.65
2019-05-14T02:24:54.428Z,27.50
2019-05-14T02:27:25.986Z,29.02
2019-05-14T02:30:02.206Z,30.10
2019-05-14T02:32:40.744Z,30.02
2019-05-14T02:35:13.722Z,28.07
2019-05-14T02:37:46.268Z,27.75
2019-05-14T02:40:20.217Z,24.92
2019-05-14T02:42:51.338Z,24.18
2019-05-14T02:45:22.910Z,24.72
2019-05-14T02:47:55.544Z,24.23
2019-05-14T02:50:29.666Z,23.05
2019-05-14T02:53:01.525Z,22.70
2019-05-14T02:55:34.202Z,23.35
2019-05-14T02:58:09.712Z,24.15
2019-05-14T03:00:45.420Z,23.05
2019-05-14T03:03:19.203Z,24.12
2019-05-14T03:05:52.146Z,22.85
2019-05-14T03:08:23.736Z,22.25
2019-05-14T03:10:55.386Z,21.55
2019-05-14T03:13:29.547Z,21.55
2019-05-14T03:16:21.107Z,21.93
2019-05-14T03:21:09.310Z,22.93
2019-05-14T03:23:40.105Z,21.50
2019-05-14T03:26:11.777Z,22.52
2019-05-14T03:28:43.402Z,24.15
2019-05-14T03:31:14.991Z,22.52
2019-05-14T03:33:51.819Z,23.05
2019-05-14T03:36:27.061Z,23.85
2019-05-14T03:38:59.350Z,23.53
2019-05-14T03:41:31.124Z,23.60
2019-05-14T03:44:03.013Z,25.60
2019-05-14T03:46:46.037Z,25.00
2019-05-14T03:49:09.260Z,23.12
2019-05-14T03:51:41.162Z,25.55
2019-05-14T03:54:13.824Z,24.43
2019-05-14T03:56:45.420Z,22.95
2019-05-14T03:59:19.728Z,24.15
2019-05-14T04:01:51.274Z,22.40
2019-05-14T04:04:23.396Z,23.05
2019-05-14T04:06:59.895Z,21.40
2019-05-14T04:09:33.817Z,21.20
2019-05-14T04:12:09.947Z,20.75
2019-05-14T04:14:44.577Z,20.17
2019-05-14T04:17:31.575Z,19.30
2019-05-14T04:19:54.637Z,18.37
2019-05-14T04:22:31.743Z,17.60
2019-05-14T04:25:10.912Z,16.32
2019-05-14T04:27:43.833Z,16.97
2019-05-14T04:30:20.560Z,15.85
2019-05-14T04:32:50.680Z,16.27
2019-05-14T04:35:22.602Z,15.43
2019-05-14T04:37:54.222Z,15.63
2019-05-14T04:40:25.799Z,14.83
2019-05-14T04:42:59.197Z,15.55
2019-05-14T04:45:32.168Z,14.25
2019-05-14T04:48:21.462Z,14.33
2019-05-14T04:50:40.272Z,15.77
2019-05-14T04:53:10.413Z,15.10
2019-05-14T04:55:42.972Z,14.13
2019-05-14T04:58:15.715Z,12.93
2019-05-14T05:00:49.865Z,12.78
2019-05-14T05:03:22.813Z,12.58
2019-05-14T05:05:58.922Z,14.13
2019-05-14T05:08:31.070Z,13.15
2019-05-14T05:11:02.683Z,12.73
2019-05-14T05:13:34.365Z,12.75
2019-05-14T05:16:09.644Z,11.48
2019-05-14T05:18:40.355Z,11.50
2019-05-14T05:21:11.901Z,11.85
2019-05-14T05:23:43.424Z,12.00
2019-05-14T05:26:18.252Z,12.43
2019-05-14T05:29:02.530Z,11.38
2019-05-14T05:31:23.965Z,12.05
2019-05-14T05:33:58.053Z,11.70
2019-05-14T05:36:29.122Z,12.90
2019-05-14T05:39:00.754Z,12.53
2019-05-14T05:41:33.298Z,11.73
2019-05-14T05:44:05.154Z,11.90
2019-05-14T05:46:39.016Z,13.20
2019-05-14T05:49:10.632Z,14.07
2019-05-14T05:51:43.296Z,16.15
2019-05-14T05:54:15.045Z,17.82
2019-05-14T05:56:50.733Z,19.77
2019-05-14T05:59:29.300Z,19.87
2019-05-14T06:02:02.702Z,17.15
2019-05-14T06:04:34.344Z,14.87
2019-05-14T06:07:05.926Z,14.98
2019-05-14T06:09:38.096Z,14.95
2019-05-14T06:12:10.004Z,14.60
2019-05-14T06:14:42.894Z,15.08
2019-05-14T06:17:14.422Z,15.35
2019-05-14T06:19:52.119Z,15.43
2019-05-14T06:22:24.318Z,15.85
2019-05-14T06:24:59.408Z,15.03
2019-05-14T06:27:31.018Z,14.10
2019-05-14T06:30:02.659Z,14.15
2019-05-14T06:32:34.235Z,15.48
2019-05-14T06:35:08.863Z,15.60
2019-05-14T06:37:40.610Z,15.32
2019-05-14T06:40:13.436Z,16.15
2019-05-14T06:42:48.428Z,16.87
2019-05-14T06:45:21.730Z,14.58
2019-05-14T06:47:53.313Z,15.05
2019-05-14T06:50:28.429Z,11.97
2019-05-14T06:52:59.718Z,12.18
2019-05-14T06:55:31.366Z,11.43
2019-05-14T06:58:03.031Z,11.48
2019-05-14T07:00:34.664Z,10.82
2019-05-14T07:03:08.757Z,11.18
2019-05-14T07:05:41.083Z,11.38
2019-05-14T07:08:12.740Z,10.58
2019-05-14T07:10:44.529Z,11.68
2019-05-14T07:13:18.714Z,10.85
2019-05-14T07:15:49.613Z,11.00
2019-05-14T07:18:21.245Z,11.05
2019-05-14T07:20:54.327Z,11.03
2019-05-14T07:23:32.996Z,10.60
2019-05-14T07:26:08.396Z,10.50
2019-05-14T07:28:42.479Z,9.83
2019-05-14T07:31:13.687Z,10.20
2019-05-14T07:33:50.395Z,10.53
2019-05-14T07:36:29.270Z,10.32
2019-05-14T07:39:01.254Z,10.23
2019-05-14T07:41:39.469Z,9.50
2019-05-14T07:44:18.259Z,8.78
2019-05-14T07:46:55.220Z,10.23
2019-05-14T07:49:29.024Z,10.10
2019-05-14T07:52:06.418Z,9.08
2019-05-14T07:54:41.143Z,9.50
2019-05-14T07:57:12.700Z,9.55
2019-05-14T07:59:44.587Z,9.78
2019-05-14T08:02:16.255Z,9.13
2019-05-14T08:04:51.564Z,9.78
2019-05-14T08:07:28.170Z,9.60
2019-05-14T08:10:02.079Z,9.15
2019-05-14T08:12:35.406Z,9.35
2019-05-14T08:15:17.809Z,9.30
2019-05-14T08:17:42.386Z,9.60
2019-05-14T08:20:14.130Z,9.18
2019-05-14T08:22:45.853Z,11.18
2019-05-14T08:25:19.001Z,10.18
2019-05-14T08:27:50.926Z,9.80
2019-05-14T08:30:22.943Z,10.45
2019-05-14T08:32:58.373Z,9.58
2019-05-14T08:35:34.081Z,10.30
2019-05-14T08:38:11.381Z,9.90
2019-05-14T08:40:43.867Z,11.00
2019-05-14T08:43:18.878Z,10.32
2019-05-14T08:45:50.532Z,10.35
2019-05-14T08:48:24.343Z,9.85
2019-05-14T08:50:55.941Z,10.15
2019-05-14T08:53:30.758Z,9.80
2019-05-14T08:56:02.526Z,10.30
2019-05-14T08:58:34.625Z,10.20
2019-05-14T09:01:08.218Z,12.23
2019-05-14T09:06:19.008Z,9.58
2019-05-14T09:08:59.305Z,11.12
2019-05-14T09:11:35.958Z,9.98
2019-05-14T09:14:03.877Z,10.90
2019-05-14T09:16:42.799Z,9.93
2019-05-14T09:19:12.282Z,10.10
2019-05-14T09:21:45.145Z,9.88
2019-05-14T09:24:18.215Z,10.50
2019-05-14T09:26:50.581Z,10.65
2019-05-14T09:29:26.099Z,9.85
2019-05-14T09:31:55.522Z,10.58
2019-05-14T09:34:29.131Z,10.45
2019-05-14T09:37:08.970Z,10.32
2019-05-14T09:39:44.979Z,9.88
2019-05-14T09:42:19.405Z,10.60
2019-05-14T09:44:49.985Z,10.30
2019-05-14T09:47:21.806Z,9.85
2019-05-14T09:49:53.504Z,9.08
2019-05-14T09:52:29.468Z,8.25
2019-05-14T09:55:02.410Z,8.60
2019-05-14T09:57:33.888Z,9.30
2019-05-14T10:00:09.145Z,9.05
2019-05-14T10:02:41.984Z,9.10
2019-05-14T10:05:13.572Z,8.85
2019-05-14T10:07:45.244Z,9.58
2019-05-14T10:10:19.618Z,9.58
2019-05-14T10:15:23.765Z,8.60
2019-05-14T10:18:00.250Z,8.53
2019-05-14T10:23:09.106Z,9.00
2019-05-14T10:25:42.454Z,9.45
2019-05-14T10:28:19.215Z,8.63
2019-05-14T10:30:51.419Z,8.23
2019-05-14T10:33:25.890Z,9.10
2019-05-14T10:35:58.800Z,9.13
2019-05-14T10:38:34.255Z,8.70
2019-05-14T10:41:24.633Z,9.00
2019-05-14T10:43:58.847Z,8.83
2019-05-14T10:46:29.557Z,9.50
2019-05-14T10:49:16.485Z,8.98
2019-05-14T10:51:38.927Z,9.05
2019-05-14T10:54:21.222Z,8.33
2019-05-14T10:56:43.987Z,8.15
2019-05-14T10:59:18.503Z,8.30
2019-05-14T11:01:50.370Z,8.45
2019-05-14T11:04:21.911Z,9.38
2019-05-14T11:06:54.676Z,9.23
2019-05-14T11:09:28.434Z,8.20
2019-05-14T11:11:59.755Z,8.33
2019-05-14T11:14:32.117Z,7.90
2019-05-14T11:17:05.105Z,8.53
2019-05-14T11:19:38.782Z,8.58
2019-05-14T11:22:09.874Z,8.70
2019-05-14T11:24:42.411Z,8.20
2019-05-14T11:27:15.080Z,8.58
2019-05-14T11:29:49.270Z,8.43
2019-05-14T11:32:21.368Z,8.48
2019-05-14T11:34:54.042Z,8.63
2019-05-14T11:37:28.017Z,8.83
2019-05-14T11:39:59.010Z,8.45
2019-05-14T11:42:31.698Z,8.98
2019-05-14T11:45:03.997Z,8.90
2019-05-14T11:47:38.033Z,9.10
2019-05-14T11:50:10.142Z,8.60
2019-05-14T11:52:43.919Z,8.38
2019-05-14T11:55:18.862Z,9.38
2019-05-14T11:57:50.638Z,8.55
2019-05-14T12:00:29.325Z,8.50
2019-05-14T12:03:00.688Z,7.95
2019-05-14T12:05:32.396Z,8.03
2019-05-14T12:08:04.047Z,8.23
2019-05-14T12:10:38.524Z,8.70
2019-05-14T12:13:21.740Z,8.30
2019-05-14T12:15:53.396Z,8.18
2019-05-14T12:18:29.220Z,8.20
2019-05-14T12:23:32.393Z,8.18
2019-05-14T12:26:04.373Z,10.53
2019-05-14T12:28:38.461Z,8.05
2019-05-14T12:31:09.571Z,8.00
2019-05-14T12:33:41.962Z,8.75
2019-05-14T12:36:14.585Z,8.50
2019-05-14T12:38:48.432Z,8.28
2019-05-14T12:41:20.091Z,9.35
2019-05-14T12:43:51.727Z,8.63
2019-05-14T12:46:23.340Z,9.38
2019-05-14T12:48:55.052Z,8.53
2019-05-14T12:51:30.721Z,9.90
2019-05-14T12:54:03.321Z,9.25
2019-05-14T12:56:39.200Z,9.00
2019-05-14T12:59:12.048Z,10.32
2019-05-14T13:01:49.280Z,10.10
2019-05-14T13:04:22.357Z,11.97
2019-05-14T13:06:55.255Z,9.83
2019-05-14T13:09:26.891Z,10.70
2019-05-14T13:11:58.782Z,8.40
2019-05-14T13:14:32.346Z,9.50
2019-05-14T13:17:04.321Z,8.83
2019-05-14T13:19:37.979Z,7.97
2019-05-14T13:22:15.099Z,8.33
2019-05-14T13:24:44.357Z,8.20
2019-05-14T13:27:19.079Z,9.23
2019-05-14T13:32:21.268Z,8.43
2019-05-14T13:34:52.964Z,13.43
2019-05-14T13:37:28.661Z,8.55
2019-05-14T13:39:59.350Z,7.85
2019-05-14T13:42:31.075Z,8.20
2019-05-14T13:45:02.631Z,8.68
2019-05-14T13:47:34.199Z,9.40
2019-05-14T13:50:08.504Z,8.83
2019-05-14T13:52:58.223Z,8.50
2019-05-14T13:55:19.678Z,7.30
2019-05-14T13:57:51.445Z,7.90
2019-05-14T14:00:24.428Z,7.45
2019-05-14T14:02:58.818Z,8.20
2019-05-14T14:05:31.103Z,9.18
2019-05-14T14:08:02.709Z,8.25
2019-05-14T14:10:45.041Z,8.18
2019-05-14T14:13:11.702Z,8.23
2019-05-14T14:15:45.951Z,8.28
2019-05-14T14:18:21.021Z,8.80
2019-05-14T14:20:54.160Z,7.97
2019-05-14T14:23:30.404Z,8.35
2019-05-14T14:25:59.646Z,8.15
2019-05-14T14:28:31.514Z,8.13
2019-05-14T14:31:06.906Z,9.00
2019-05-14T14:33:38.935Z,11.03
2019-05-14T14:36:09.932Z,10.90
2019-05-14T14:38:45.009Z,8.93
2019-05-14T14:41:19.463Z,8.68
2019-05-14T14:43:55.112Z,8.35
2019-05-14T14:46:31.343Z,8.20
2019-05-14T14:49:06.540Z,7.92
2019-05-14T14:51:45.256Z,8.88
2019-05-14T14:54:18.283Z,9.28
2019-05-14T14:56:51.990Z,10.82
2019-05-14T14:59:30.438Z,12.05
2019-05-14T15:05:12.789Z,13.30
2019-05-14T15:07:41.218Z,15.10
2019-05-14T15:10:13.263Z,15.03
2019-05-14T15:12:45.002Z,12.23
2019-05-14T15:15:26.391Z,9.98
2019-05-14T15:17:59.109Z,8.65
2019-05-14T15:20:31.196Z,9.93
2019-05-14T15:23:02.914Z,10.18
2019-05-14T15:25:34.865Z,9.78
2019-05-14T15:28:09.542Z,8.25
2019-05-14T15:30:41.548Z,8.73
2019-05-14T15:33:14.725Z,9.98
2019-05-14T15:35:49.132Z,10.40
2019-05-14T15:38:20.415Z,9.38
2019-05-14T15:40:52.037Z,9.13
2019-05-14T15:43:28.552Z,8.88
2019-05-14T15:46:02.437Z,9.50
2019-05-14T15:48:39.501Z,9.10
2019-05-14T15:51:14.752Z,8.30
2019-05-14T15:54:05.450Z,8.13
2019-05-14T15:56:30.049Z,8.05
2019-05-14T15:59:01.658Z,9.80
2019-05-14T16:01:33.299Z,11.57
2019-05-14T16:04:05.056Z,10.20
2019-05-14T16:06:43.834Z,9.65
2019-05-14T16:09:15.975Z,9.88
2019-05-14T16:11:49.651Z,9.93
2019-05-14T16:14:23.332Z,8.00
2019-05-14T16:16:56.914Z,8.83
2019-05-14T16:19:30.103Z,8.40
2019-05-14T16:22:01.795Z,9.20
2019-05-14T16:24:52.206Z,8.60
2019-05-14T16:27:11.259Z,8.28
2019-05-14T16:29:46.908Z,6.95
2019-05-14T16:32:18.579Z,7.47
2019-05-14T16:34:50.224Z,7.33
2019-05-14T16:37:22.171Z,8.08
2019-05-14T16:39:56.502Z,7.28
2019-05-14T16:42:29.292Z,7.08
2019-05-14T16:45:01.246Z,7.95
2019-05-14T16:47:35.297Z,7.47
2019-05-14T16:50:10.025Z,8.30
2019-05-14T16:52:45.136Z,7.47
2019-05-14T16:55:26.881Z,7.42
2019-05-14T16:58:03.784Z,7.40
2019-05-14T17:00:42.675Z,6.95
2019-05-14T17:03:19.338Z,7.53
2019-05-14T17:05:51.084Z,7.35
2019-05-14T17:08:28.478Z,6.72
2019-05-14T17:10:59.877Z,8.48
2019-05-14T17:13:39.494Z,8.53
2019-05-14T17:16:12.924Z,8.50
2019-05-14T17:18:48.577Z,9.03
2019-05-14T17:21:22.916Z,8.95
2019-05-14T17:23:58.077Z,8.68
2019-05-14T17:26:31.124Z,9.68
2019-05-14T17:29:05.289Z,9.28
2019-05-14T17:31:40.534Z,9.70
2019-05-14T17:34:12.131Z,9.10
2019-05-14T17:36:43.769Z,9.55
2019-05-14T17:39:15.398Z,8.88
2019-05-14T17:41:48.525Z,8.68
2019-05-14T17:44:20.489Z,9.15
2019-05-14T17:46:53.215Z,9.20
2019-05-14T17:49:24.776Z,8.90
2019-05-14T17:51:58.097Z,9.70
2019-05-14T17:54:29.915Z,9.25
2019-05-14T17:57:02.395Z,12.33
2019-05-14T17:59:35.036Z,9.68
2019-05-14T18:02:08.687Z,9.73
2019-05-14T18:04:40.497Z,9.38
2019-05-14T18:07:12.166Z,9.98
2019-05-14T18:09:43.809Z,9.53
2019-05-14T18:12:18.926Z,10.10
2019-05-14T18:14:50.885Z,10.15
2019-05-14T18:17:22.469Z,9.78
2019-05-14T18:19:54.070Z,9.98
2019-05-14T18:22:28.463Z,10.75
2019-05-14T18:25:00.938Z,11.33
2019-05-14T18:27:39.277Z,12.35
2019-05-14T18:30:12.256Z,12.25
2019-05-14T18:32:44.886Z,11.93
2019-05-14T18:35:18.878Z,12.45
2019-05-14T18:37:50.418Z,12.98
2019-05-14T18:40:24.094Z,12.50
2019-05-14T18:42:59.086Z,12.35
2019-05-14T18:45:31.276Z,13.20
2019-05-14T18:48:04.126Z,12.82
2019-05-14T18:50:37.036Z,14.10
2019-05-14T18:53:12.867Z,14.90
2019-05-14T18:55:42.091Z,15.83
2019-05-14T18:58:13.697Z,14.83
2019-05-14T19:00:47.906Z,16.07
2019-05-14T19:03:20.005Z,15.85
2019-05-14T19:05:51.597Z,17.70
2019-05-14T19:08:24.193Z,17.30
2019-05-14T19:11:00.282Z,18.23
2019-05-14T19:13:31.924Z,18.65
2019-05-14T19:16:03.535Z,21.27
2019-05-14T19:18:35.188Z,21.77
2019-05-14T19:21:08.812Z,20.57
2019-05-14T19:23:40.171Z,21.55
2019-05-14T19:26:13.619Z,22.58
2019-05-14T19:28:45.220Z,21.70
2019-05-14T19:31:18.462Z,21.42
2019-05-14T19:33:50.076Z,22.90
2019-05-14T19:36:22.902Z,23.77
2019-05-14T19:38:54.577Z,22.55
2019-05-14T19:41:28.127Z,22.67
2019-05-14T19:43:59.822Z,24.00
2019-05-14T19:46:31.400Z,23.98
2019-05-14T19:49:03.071Z,22.75
2019-05-14T19:51:34.730Z,23.42
2019-05-14T19:54:08.146Z,25.50
2019-05-14T19:56:52.392Z,23.38
2019-05-14T19:59:13.230Z,25.32
2019-05-14T20:01:48.233Z,24.18
2019-05-14T20:04:20.197Z,24.87
2019-05-14T20:06:51.756Z,24.85
2019-05-14T20:09:24.527Z,26.07
2019-05-14T20:11:58.164Z,24.75
2019-05-14T20:14:29.529Z,26.12
2019-05-14T20:17:01.189Z,24.57
2019-05-14T20:19:32.816Z,25.25
2019-05-14T20:22:04.505Z,25.20
2019-05-14T20:24:36.128Z,24.87
2019-05-14T20:27:11.759Z,24.45
2019-05-14T20:29:42.116Z,25.23
2019-05-14T20:32:13.671Z,25.20
2019-05-14T20:34:45.220Z,25.75
2019-05-14T20:37:18.961Z,25.50
2019-05-14T20:39:50.602Z,26.07
2019-05-14T20:42:25.939Z,26.10
2019-05-14T20:44:57.534Z,27.73
2019-05-14T20:47:30.489Z,25.70
2019-05-14T20:50:02.065Z,26.35
2019-05-14T20:52:33.597Z,26.30
2019-05-14T20:55:09.691Z,26.25
2019-05-14T20:57:41.365Z,27.00
2019-05-14T21:00:13.192Z,26.37
2019-05-14T21:02:44.739Z,25.50
2019-05-14T21:05:18.689Z,26.30
2019-05-14T21:07:49.547Z,25.80
2019-05-14T21:10:23.123Z,24.67
2019-05-14T21:12:54.670Z,24.05
2019-05-14T21:15:28.515Z,24.10
2019-05-14T21:18:01.600Z,24.35
2019-05-14T21:20:33.264Z,23.62
2019-05-14T21:23:04.843Z,23.65
2019-05-14T21:25:38.541Z,24.23
2019-05-14T21:28:09.809Z,22.20
2019-05-14T21:30:41.288Z,23.18
2019-05-14T21:33:12.785Z,22.20
2019-05-14T21:35:44.418Z,21.48
2019-05-14T21:38:16.070Z,22.93
2019-05-14T21:40:49.759Z,21.68
2019-05-14T21:43:22.005Z,22.32
2019-05-14T21:45:54.558Z,21.02
2019-05-14T21:48:26.136Z,20.25
2019-05-14T21:51:00.608Z,20.17
2019-05-14T21:53:31.013Z,19.75
2019-05-14T21:56:03.858Z,19.48
2019-05-14T21:58:38.772Z,19.80
2019-05-14T22:01:11.956Z,18.92
2019-05-14T22:03:44.128Z,19.37
2019-05-14T22:06:18.140Z,19.40
2019-05-14T22:08:49.064Z,19.12
2019-05-14T22:11:20.626Z,19.17
2019-05-14T22:13:52.278Z,17.67
2019-05-14T22:16:23.833Z,19.60
2019-05-14T22:18:55.424Z,19.55
2019-05-14T22:21:28.885Z,19.50
2019-05-14T22:24:00.300Z,22.07
2019-05-14T22:26:32.812Z,21.00
2019-05-14T22:29:08.348Z,22.15
2019-05-14T22:31:40.670Z,21.10
2019-05-14T22:34:12.233Z,21.77
2019-05-14T22:36:44.787Z,22.32
2019-05-14T22:39:19.789Z,21.37
2019-05-14T22:41:50.600Z,22.55
2019-05-14T22:44:23.851Z,22.52
2019-05-14T22:46:55.583Z,22.58
2019-05-14T22:49:29.290Z,22.77
2019-05-14T22:52:02.952Z,22.32
2019-05-14T22:54:34.562Z,22.02
2019-05-14T22:57:06.180Z,21.73
2019-05-14T22:59:39.258Z,22.35
2019-05-14T23:02:19.148Z,22.55
2019-05-14T23:04:50.042Z,21.33
2019-05-14T23:07:21.576Z,22.13
2019-05-14T23:09:53.114Z,20.12
2019-05-14T23:12:24.735Z,20.85
2019-05-14T23:14:58.145Z,19.70
2019-05-14T23:17:30.576Z,19.00
2019-05-14T23:20:03.665Z,20.43
2019-05-14T23:22:35.218Z,19.00
2019-05-14T23:25:10.083Z,19.65
2019-05-14T23:27:41.625Z,21.82
2019-05-14T23:30:13.728Z,20.15
2019-05-14T23:32:45.285Z,19.87
2019-05-14T23:35:19.073Z,19.20
2019-05-14T23:37:50.097Z,20.27
2019-05-14T23:40:22.714Z,19.80
2019-05-14T23:42:55.404Z,19.53
2019-05-14T23:45:28.499Z,19.98
2019-05-14T23:48:00.173Z,23.10
2019-05-14T23:50:33.816Z,22.35
2019-05-14T23:53:09.169Z,25.08
2019-05-14T23:55:40.716Z,25.45
2019-05-14T23:58:20.624Z,25.57
